Time;durP1;ratioP1;P1;durP2;ratioP2;P2;SDS_P1;SDS_P2;PMS_P1;PMS_P2;Temp;Humidity;BMP_temperature;BMP_pressure;BME280_temperature;BME280_humidity;BME280_pressure;Samples;Min_cycle;Max_cycle;Signal;HPM_P1;HPM_P2
2023/01/31 00:01:14;;;;;;;20.05;4.45;;;4.80;99.90;;;;;;5074326;28;20156;-66
2023/01/31 00:03:41;;;;;;;31.63;5.38;;;4.80;99.90;;;;;;5074269;28;20036;-66
2023/01/31 00:06:18;;;;;;;11.55;3.35;;;4.70;99.90;;;;;;5074261;28;20490;-66
2023/01/31 00:08:44;;;;;;;23.42;6.20;;;4.70;99.90;;;;;;5055835;28;20079;-66
2023/01/31 00:11:10;;;;;;;17.15;3.35;;;4.80;99.90;;;;;;5073957;28;20101;-66
2023/01/31 00:13:36;;;;;;;16.02;4.28;;;4.60;99.90;;;;;;5074231;28;20040;-66
2023/01/31 00:16:02;;;;;;;23.42;3.95;;;4.60;99.90;;;;;;5074016;28;20043;-66
2023/01/31 00:18:28;;;;;;;18.52;4.00;;;4.60;99.90;;;;;;5073521;28;20510;-66
2023/01/31 00:20:54;;;;;;;20.25;3.85;;;4.80;99.90;;;;;;5073740;28;20048;-66
2023/01/31 00:23:19;;;;;;;15.43;4.03;;;4.80;99.90;;;;;;5073899;28;20028;-66
2023/01/31 00:25:45;;;;;;;17.13;3.47;;;4.60;99.90;;;;;;5073744;28;20102;-66
2023/01/31 00:28:11;;;;;;;18.77;4.28;;;4.70;99.90;;;;;;5072869;28;20041;-66
2023/01/31 00:30:36;;;;;;;27.02;5.10;;;4.50;99.90;;;;;;5073800;28;20064;-66
2023/01/31 00:33:02;;;;;;;30.20;4.70;;;4.50;99.90;;;;;;5073652;28;20044;-66
2023/01/31 00:35:27;;;;;;;14.98;3.42;;;4.50;99.90;;;;;;5073613;28;20093;-66
2023/01/31 00:37:53;;;;;;;19.13;4.13;;;4.60;99.90;;;;;;5073228;28;20494;-66
2023/01/31 00:40:19;;;;;;;14.30;3.42;;;4.60;99.90;;;;;;5055571;28;20048;-66
2023/01/31 00:42:44;;;;;;;24.02;5.00;;;4.60;99.90;;;;;;5073320;28;20037;-66
2023/01/31 00:45:11;;;;;;;21.48;4.90;;;4.60;99.90;;;;;;5073481;28;20036;-66
2023/01/31 00:47:36;;;;;;;17.30;4.72;;;4.70;99.90;;;;;;5073057;28;20041;-66
2023/01/31 00:50:03;;;;;;;19.67;4.15;;;4.60;99.90;;;;;;5073261;28;20105;-66
2023/01/31 00:52:29;;;;;;;24.30;3.83;;;4.50;99.90;;;;;;5073189;28;20048;-66
2023/01/31 00:54:54;;;;;;;25.20;4.10;;;4.50;99.90;;;;;;5073169;28;20515;-66
2023/01/31 00:57:19;;;;;;;18.58;4.25;;;4.60;99.90;;;;;;5072733;28;20505;-66
2023/01/31 00:59:45;;;;;;;21.45;4.55;;;4.50;99.90;;;;;;5072447;28;20116;-66
2023/01/31 01:02:11;;;;;;;17.23;3.20;;;4.40;99.90;;;;;;5073052;28;20093;-66
2023/01/31 01:04:36;;;;;;;15.40;3.55;;;4.50;99.90;;;;;;5072981;28;20041;-67
2023/01/31 01:07:02;;;;;;;21.27;3.78;;;4.50;99.90;;;;;;5072695;28;20036;-66
2023/01/31 01:09:27;;;;;;;23.92;4.40;;;4.50;99.90;;;;;;5072716;28;20558;-66
2023/01/31 01:11:53;;;;;;;20.33;3.65;;;4.30;99.90;;;;;;5072761;28;20145;-66
2023/01/31 01:14:18;;;;;;;20.25;3.88;;;4.30;99.90;;;;;;5072936;28;20048;-66
2023/01/31 01:16:44;;;;;;;16.13;3.35;;;4.40;99.90;;;;;;5072749;28;20401;-66
2023/01/31 01:19:16;;;;;;;23.70;4.28;;;4.40;99.90;;;;;;5072316;28;20072;-66
2023/01/31 01:21:43;;;;;;;16.80;3.63;;;4.20;99.90;;;;;;5072580;28;20041;-66
2023/01/31 01:24:14;;;;;;;17.85;3.80;;;4.30;99.90;;;;;;5072423;28;20611;-66
2023/01/31 01:26:40;;;;;;;23.65;5.45;;;4.10;99.90;;;;;;5072716;28;20043;-66
2023/01/31 01:29:06;;;;;;;21.38;3.80;;;4.10;99.90;;;;;;5072174;28;20033;-66
2023/01/31 01:31:31;;;;;;;15.55;2.90;;;4.00;99.90;;;;;;5072333;28;20422;-66
2023/01/31 01:34:03;;;;;;;26.00;4.68;;;4.20;99.90;;;;;;5072358;28;20037;-66
2023/01/31 01:36:30;;;;;;;21.45;6.00;;;4.00;99.90;;;;;;5054548;28;20048;-66
2023/01/31 01:38:56;;;;;;;19.23;4.18;;;3.90;99.90;;;;;;5071784;28;20056;-66
2023/01/31 01:41:22;;;;;;;15.98;3.42;;;4.10;99.90;;;;;;5054101;28;20481;-66
2023/01/31 01:43:53;;;;;;;15.40;3.55;;;4.00;99.90;;;;;;5072115;28;20109;-66
2023/01/31 01:46:29;;;;;;;16.65;3.65;;;4.00;99.90;;;;;;5071950;28;20040;-66
2023/01/31 01:49:12;;;;;;;17.42;3.80;;;3.80;99.90;;;;;;5071602;28;20075;-66
2023/01/31 01:51:39;;;;;;;18.65;3.60;;;3.80;99.90;;;;;;5072138;28;20032;-66
2023/01/31 01:54:12;;;;;;;19.20;4.15;;;3.90;99.90;;;;;;5072075;28;20070;-66
2023/01/31 01:56:42;;;;;;;18.35;4.40;;;3.90;99.90;;;;;;5072013;28;20081;-66
2023/01/31 01:59:19;;;;;;;24.58;4.43;;;4.10;99.90;;;;;;5071746;28;20379;-66
2023/01/31 02:01:46;;;;;;;18.92;4.43;;;3.90;99.90;;;;;;5071566;28;20055;-67
2023/01/31 02:04:15;;;;;;;16.27;3.28;;;4.00;99.90;;;;;;5072004;28;20156;-67
2023/01/31 02:06:41;;;;;;;17.83;3.58;;;4.00;99.90;;;;;;5071963;28;20048;-67
2023/01/31 02:09:11;;;;;;;22.17;4.55;;;3.80;99.90;;;;;;5071514;28;20040;-67
2023/01/31 02:11:36;;;;;;;16.48;3.47;;;3.90;99.90;;;;;;5071779;28;20603;-67
2023/01/31 02:14:06;;;;;;;19.52;4.57;;;4.10;99.90;;;;;;5071647;28;20135;-67
2023/01/31 02:16:31;;;;;;;21.02;3.50;;;3.90;99.90;;;;;;5071767;28;20037;-66
2023/01/31 02:18:57;;;;;;;17.98;4.85;;;4.20;99.90;;;;;;5053518;28;20070;-67
2023/01/31 02:21:32;;;;;;;17.02;3.75;;;4.00;99.90;;;;;;5072166;28;20036;-67
2023/01/31 02:24:38;;;;;;;13.68;3.17;;;4.20;99.90;;;;;;5072221;28;20055;-67
2023/01/31 02:27:26;;;;;;;19.10;3.63;;;4.10;99.90;;;;;;5054318;28;20044;-67
2023/01/31 02:30:30;;;;;;;20.45;3.47;;;4.10;99.90;;;;;;5071965;28;20040;-67
2023/01/31 02:33:15;;;;;;;16.05;3.83;;;4.10;99.90;;;;;;5071723;28;20123;-67
2023/01/31 02:36:02;;;;;;;13.70;2.83;;;4.30;99.90;;;;;;5071584;28;20052;-67
2023/01/31 02:39:01;;;;;;;14.85;3.20;;;4.10;99.90;;;;;;5071229;28;20040;-67
2023/01/31 02:41:35;;;;;;;17.75;3.30;;;4.30;99.90;;;;;;5036775;28;20080;-66
2023/01/31 02:47:15;;;;;;;19.13;4.30;;;4.20;99.90;;;;;;5071202;28;20041;-67
2023/01/31 02:50:03;;;;;;;15.52;3.05;;;4.20;99.90;;;;;;5071358;28;20083;-67
2023/01/31 02:52:33;;;;;;;19.38;3.58;;;4.10;99.90;;;;;;5053388;28;20128;-67
2023/01/31 02:57:59;;;;;;;10.88;2.67;;;4.30;99.90;;;;;;5071015;28;20048;-67
2023/01/31 03:00:26;;;;;;;14.43;2.92;;;4.30;99.90;;;;;;5053830;28;20094;-67
2023/01/31 03:02:52;;;;;;;18.80;3.03;;;4.10;99.90;;;;;;5071849;28;20064;-67
2023/01/31 03:05:19;;;;;;;20.08;3.80;;;4.20;99.90;;;;;;5053680;28;20079;-67
2023/01/31 03:07:57;;;;;;;13.32;2.72;;;4.30;99.90;;;;;;5071693;28;20037;-67
2023/01/31 03:11:02;;;;;;;23.42;4.05;;;4.20;99.90;;;;;;5053478;28;20043;-67
2023/01/31 03:13:46;;;;;;;16.73;3.35;;;4.10;99.90;;;;;;5052518;28;20127;-66
2023/01/31 03:19:19;;;;;;;13.77;3.08;;;4.10;99.90;;;;;;5070974;28;20052;-66
2023/01/31 03:21:51;;;;;;;14.48;2.78;;;4.30;99.90;;;;;;5054058;28;20036;-66
2023/01/31 03:24:18;;;;;;;13.35;3.20;;;4.20;99.90;;;;;;5057384;28;20044;-66
2023/01/31 03:26:45;;;;;;;16.85;3.63;;;4.20;99.90;;;;;;5074883;28;20099;-67
2023/01/31 03:29:15;;;;;;;17.55;2.67;;;4.20;99.90;;;;;;5074307;28;20044;-66
2023/01/31 03:31:56;;;;;;;18.40;3.38;;;4.20;99.90;;;;;;5074924;28;20040;-66
2023/01/31 03:34:21;;;;;;;15.93;4.05;;;4.20;99.90;;;;;;5074829;28;20094;-66
2023/01/31 03:37:05;;;;;;;13.52;3.35;;;4.10;99.90;;;;;;5056696;28;20048;-66
2023/01/31 03:39:40;;;;;;;10.25;3.83;;;4.30;99.90;;;;;;5056811;28;20564;-66
2023/01/31 03:42:06;;;;;;;15.73;2.53;;;4.40;99.90;;;;;;5074717;28;20045;-66
2023/01/31 03:45:03;;;;;;;15.10;3.40;;;4.40;99.90;;;;;;5056563;28;20045;-66
2023/01/31 03:47:37;;;;;;;21.33;3.72;;;4.20;99.90;;;;;;5056283;28;20521;-66
2023/01/31 03:50:12;;;;;;;18.05;2.60;;;4.40;99.90;;;;;;5074174;28;20047;-67
2023/01/31 03:52:43;;;;;;;17.25;3.90;;;4.30;99.90;;;;;;5074534;28;20162;-66
2023/01/31 03:55:18;;;;;;;15.27;3.45;;;4.40;99.90;;;;;;5074318;28;20075;-66
2023/01/31 03:57:50;;;;;;;12.35;2.38;;;4.40;99.90;;;;;;5073816;28;20041;-66
2023/01/31 04:00:20;;;;;;;14.48;3.20;;;4.30;99.90;;;;;;5074046;28;20040;-67
2023/01/31 04:03:04;;;;;;;18.50;2.92;;;4.30;99.90;;;;;;5056242;28;20517;-66
2023/01/31 04:05:31;;;;;;;;;;;4.40;99.90;;;;;;5074577;28;20374;-67
2023/01/31 04:07:58;;;;;;;21.17;3.10;;;4.40;99.90;;;;;;5073694;28;19916;-66
2023/01/31 04:10:25;;;;;;;16.35;2.55;;;4.50;99.90;;;;;;5073773;28;20041;-66
2023/01/31 04:12:51;;;;;;;13.45;3.85;;;4.60;99.90;;;;;;5073771;28;20083;-66
2023/01/31 04:15:17;;;;;;;19.13;3.15;;;4.50;99.90;;;;;;5073974;28;20116;-66
2023/01/31 04:17:43;;;;;;;19.67;2.65;;;4.60;99.90;;;;;;5073551;28;20068;-66
2023/01/31 04:20:10;;;;;;;17.05;3.70;;;4.60;99.90;;;;;;5094193;22;20502;-70
2023/01/31 04:22:36;;;;;;;11.82;2.75;;;4.70;99.90;;;;;;5072703;28;20571;-70
2023/01/31 04:25:02;;;;;;;13.82;3.70;;;4.70;99.90;;;;;;5073960;28;20036;-70
2023/01/31 04:27:28;;;;;;;16.45;5.88;;;4.70;99.90;;;;;;5073469;28;20032;-71
2023/01/31 04:29:53;;;;;;;22.77;4.13;;;4.80;99.90;;;;;;5073929;28;20093;-70
2023/01/31 04:33:30;;;;;;;27.00;4.25;;;4.80;99.90;;;;;;5073649;28;20052;-70
2023/01/31 04:35:56;;;;;;;20.90;4.38;;;4.70;99.90;;;;;;4936768;28;20047;-70
2023/01/31 04:38:21;;;;;;;19.88;4.78;;;4.70;99.90;;;;;;5055595;28;20402;-70
2023/01/31 04:40:47;;;;;;;19.40;3.42;;;4.80;99.90;;;;;;5055401;28;20051;-70
2023/01/31 04:43:13;;;;;;;17.95;4.53;;;4.80;99.90;;;;;;5073670;28;20036;-70
2023/01/31 04:45:38;;;;;;;23.70;6.32;;;4.90;99.90;;;;;;5073758;28;20032;-70
2023/01/31 04:48:04;;;;;;;15.05;3.90;;;5.00;99.90;;;;;;5073306;28;20413;-70
2023/01/31 04:50:30;;;;;;;16.45;4.22;;;5.00;99.90;;;;;;5073280;28;20032;-70
2023/01/31 04:52:55;;;;;;;18.90;4.85;;;5.00;99.90;;;;;;5072169;28;20072;-70
2023/01/31 04:55:21;;;;;;;23.02;4.32;;;5.20;99.90;;;;;;5073568;28;20401;-70
2023/01/31 04:57:47;;;;;;;22.48;4.95;;;5.20;99.90;;;;;;5073015;28;20033;-70
2023/01/31 05:00:13;;;;;;;29.33;5.22;;;5.10;99.90;;;;;;5073277;28;20071;-70
2023/01/31 05:02:38;;;;;;;24.48;5.15;;;5.30;99.90;;;;;;5073154;28;20033;-70
2023/01/31 05:05:05;;;;;;;25.75;5.68;;;5.30;99.90;;;;;;5073119;28;20041;-70
2023/01/31 05:07:31;;;;;;;27.23;5.32;;;5.40;99.90;;;;;;5072665;28;20486;-70
2023/01/31 05:09:56;;;;;;;19.27;4.05;;;5.30;99.90;;;;;;5073187;28;20032;-70
2023/01/31 05:12:22;;;;;;;25.83;5.63;;;5.30;99.90;;;;;;5072972;28;20086;-70
2023/01/31 05:14:47;;;;;;;22.88;4.78;;;5.30;99.90;;;;;;5071889;28;20044;-70
2023/01/31 05:17:13;;;;;;;27.10;5.13;;;5.30;99.90;;;;;;5072609;28;20115;-70
2023/01/31 05:19:39;;;;;;;20.38;5.05;;;5.50;99.90;;;;;;5071385;28;20437;-70
2023/01/31 05:22:04;;;;;;;19.70;4.72;;;5.40;99.90;;;;;;5072967;28;20072;-70
2023/01/31 05:24:32;;;;;;;22.98;4.95;;;5.50;99.90;;;;;;5072984;28;20037;-72
2023/01/31 05:27:00;;;;;;;22.75;5.50;;;5.60;99.90;;;;;;5071185;28;20036;-72
2023/01/31 05:29:30;;;;;;;27.00;5.75;;;5.50;99.90;;;;;;5071686;28;20040;-71
2023/01/31 05:31:58;;;;;;;18.50;4.93;;;5.50;99.90;;;;;;5071378;28;20071;-71
2023/01/31 05:34:24;;;;;;;22.33;5.75;;;5.70;99.90;;;;;;5071265;28;20040;-71
2023/01/31 05:36:54;;;;;;;26.05;5.70;;;5.50;99.90;;;;;;5072586;28;20562;-71
2023/01/31 05:39:20;;;;;;;19.58;5.70;;;5.50;99.90;;;;;;5072481;28;20033;-70
2023/01/31 05:41:45;;;;;;;24.38;6.07;;;5.60;99.90;;;;;;5071143;28;20048;-71
2023/01/31 05:44:11;;;;;;;21.08;4.30;;;5.50;99.90;;;;;;5072202;28;20049;-71
2023/01/31 05:46:37;;;;;;;26.38;5.55;;;5.60;99.90;;;;;;5072289;28;20035;-71
2023/01/31 05:49:04;;;;;;;27.40;6.22;;;5.50;99.90;;;;;;5072241;28;20044;-71
2023/01/31 05:51:29;;;;;;;31.73;4.85;;;5.60;99.90;;;;;;5072473;28;20032;-70
2023/01/31 05:53:55;;;;;;;23.10;4.88;;;5.70;99.90;;;;;;5072418;28;20517;-71
2023/01/31 05:56:22;;;;;;;26.67;5.45;;;5.60;99.90;;;;;;5072061;28;20559;-71
2023/01/31 05:58:49;;;;;;;31.20;5.78;;;5.50;99.90;;;;;;5071961;28;20040;-71
2023/01/31 06:01:19;;;;;;;23.77;5.05;;;5.60;99.90;;;;;;5070614;28;20572;-71
2023/01/31 06:03:45;;;;;;;22.13;4.78;;;5.50;99.90;;;;;;5072436;28;20040;-71
2023/01/31 06:06:11;;;;;;;29.15;7.78;;;5.50;99.90;;;;;;5070836;28;20051;-71
2023/01/31 06:08:37;;;;;;;40.88;7.40;;;5.70;99.90;;;;;;5070562;28;20032;-71
2023/01/31 06:11:03;;;;;;;24.25;5.60;;;5.50;99.90;;;;;;5072016;28;20063;-71
2023/01/31 06:13:30;;;;;;;26.67;6.25;;;5.60;99.90;;;;;;5072099;28;20036;-71
2023/01/31 06:15:55;;;;;;;20.50;4.40;;;5.60;99.90;;;;;;5071905;28;20056;-71
2023/01/31 06:18:21;;;;;;;31.17;5.65;;;5.80;99.90;;;;;;5070267;28;20048;-71
2023/01/31 06:20:46;;;;;;;29.45;5.47;;;5.80;99.90;;;;;;5070595;28;20086;-71
2023/01/31 06:23:12;;;;;;;22.05;5.38;;;5.70;99.90;;;;;;5071829;28;20036;-71
2023/01/31 06:25:37;;;;;;;23.80;6.10;;;5.70;99.90;;;;;;5070578;28;20040;-71
2023/01/31 06:28:04;;;;;;;27.45;7.57;;;5.80;99.90;;;;;;5071671;28;20037;-71
2023/01/31 06:30:30;;;;;;;24.60;5.85;;;5.70;99.90;;;;;;5070416;28;20039;-71
2023/01/31 06:32:58;;;;;;;23.25;6.40;;;5.80;99.90;;;;;;5072011;28;20448;-71
2023/01/31 06:35:24;;;;;;;31.08;6.82;;;5.90;99.90;;;;;;5070456;28;20044;-71
2023/01/31 06:37:49;;;;;;;32.60;6.20;;;6.00;99.90;;;;;;5071557;28;20450;-71
2023/01/31 06:40:15;;;;;;;29.85;7.32;;;5.80;99.90;;;;;;5071710;28;20386;-71
2023/01/31 06:42:41;;;;;;;33.38;6.60;;;5.90;99.90;;;;;;5071637;28;20494;-71
2023/01/31 06:45:07;;;;;;;24.05;6.45;;;6.00;99.90;;;;;;5071555;28;20406;-71
2023/01/31 06:47:32;;;;;;;30.90;8.23;;;5.90;99.90;;;;;;5071262;28;20036;-71
2023/01/31 06:49:58;;;;;;;29.38;6.53;;;5.80;99.90;;;;;;5071957;28;20033;-71
2023/01/31 06:52:24;;;;;;;22.88;5.50;;;5.90;99.90;;;;;;5070677;28;20405;-71
2023/01/31 06:54:49;;;;;;;26.35;6.40;;;5.90;99.90;;;;;;5071678;28;20032;-71
2023/01/31 06:57:15;;;;;;;22.90;5.38;;;5.80;99.90;;;;;;5073033;28;20044;-71
2023/01/31 06:59:41;;;;;;;27.88;5.90;;;6.00;99.90;;;;;;5075733;28;20048;-71
2023/01/31 07:02:08;;;;;;;26.50;5.55;;;6.00;99.90;;;;;;5075964;28;20040;-71
2023/01/31 07:04:33;;;;;;;25.60;6.20;;;5.90;99.90;;;;;;5076022;28;20047;-72
2023/01/31 07:06:59;;;;;;;20.80;5.05;;;6.00;99.90;;;;;;5075511;28;20040;-72
2023/01/31 07:09:24;;;;;;;22.73;5.90;;;6.00;99.90;;;;;;5075668;28;20041;-72
2023/01/31 07:11:50;;;;;;;22.60;5.50;;;6.00;99.90;;;;;;5075806;28;20040;-72
2023/01/31 07:14:15;;;;;;;22.15;6.50;;;5.80;99.90;;;;;;5075675;28;20096;-71
2023/01/31 07:16:41;;;;;;;33.45;6.18;;;6.00;99.90;;;;;;5074192;28;20083;-71
2023/01/31 07:19:07;;;;;;;18.63;5.50;;;6.00;99.90;;;;;;5075071;28;20044;-71
2023/01/31 07:21:34;;;;;;;21.65;5.15;;;5.90;99.90;;;;;;5075238;28;20080;-70
2023/01/31 07:24:00;;;;;;;26.80;6.18;;;6.00;99.90;;;;;;5074068;28;20078;-71
2023/01/31 07:26:26;;;;;;;23.67;5.55;;;6.10;99.90;;;;;;5075194;28;20032;-70
2023/01/31 07:28:52;;;;;;;20.17;4.65;;;6.10;99.90;;;;;;5074708;28;20075;-71
2023/01/31 07:31:18;;;;;;;27.10;4.97;;;6.10;99.90;;;;;;5075209;28;20466;-70
2023/01/31 07:33:43;;;;;;;22.85;5.07;;;6.00;99.90;;;;;;5075188;28;20064;-70
2023/01/31 07:36:12;;;;;;;21.58;6.13;;;6.20;99.90;;;;;;5075244;28;20387;-71
2023/01/31 07:38:41;;;;;;;22.55;4.85;;;6.10;99.90;;;;;;5067583;28;20039;-70
2023/01/31 07:41:08;;;;;;;20.60;5.30;;;6.10;99.90;;;;;;5060678;28;20041;-71
2023/01/31 07:43:34;;;;;;;17.63;4.93;;;6.20;99.90;;;;;;5066771;28;20733;-70
2023/01/31 07:45:59;;;;;;;25.83;6.05;;;6.20;99.90;;;;;;5074068;28;20075;-71
2023/01/31 07:48:26;;;;;;;15.65;4.20;;;6.20;99.90;;;;;;5074635;28;20466;-71
2023/01/31 07:50:57;;;;;;;18.50;5.65;;;6.20;99.90;;;;;;5070308;28;20179;-71
2023/01/31 07:53:22;;;;;;;17.65;4.75;;;6.10;99.90;;;;;;5062616;28;20040;-71
2023/01/31 07:55:48;;;;;;;19.60;4.53;;;6.20;99.90;;;;;;5055393;28;20045;-70
2023/01/31 07:58:15;;;;;;;16.35;4.93;;;6.10;99.90;;;;;;5054813;28;20040;-71
2023/01/31 08:03:33;;;;;;;15.75;4.50;;;6.30;99.90;;;;;;5055086;28;20041;-71
2023/01/31 08:06:18;;;;;;;16.35;4.25;;;6.30;99.90;;;;;;5054295;28;20033;-71
2023/01/31 08:08:44;;;;;;;20.90;4.68;;;6.30;99.90;;;;;;5054911;28;20037;-71
2023/01/31 08:11:13;;;;;;;15.57;5.05;;;6.30;99.90;;;;;;5055120;28;20112;-71
2023/01/31 08:13:39;;;;;;;26.55;4.57;;;6.40;99.90;;;;;;5054665;28;20398;-71
2023/01/31 08:16:06;;;;;;;16.58;5.47;;;6.30;99.90;;;;;;5054794;28;20037;-71
2023/01/31 08:18:32;;;;;;;19.98;4.78;;;6.30;99.90;;;;;;5053184;28;20055;-71
2023/01/31 08:20:58;;;;;;;14.50;3.67;;;6.40;99.90;;;;;;5054331;28;20044;-71
2023/01/31 08:23:25;;;;;;;15.63;4.28;;;6.40;99.90;;;;;;5054893;28;20060;-71
2023/01/31 08:25:51;;;;;;;17.95;3.67;;;6.40;99.90;;;;;;5053024;28;20041;-71
2023/01/31 08:28:16;;;;;;;14.77;3.42;;;6.30;99.90;;;;;;5053685;28;20045;-71
2023/01/31 08:30:43;;;;;;;14.80;3.95;;;6.40;99.90;;;;;;5054035;28;20033;-71
2023/01/31 08:33:10;;;;;;;20.33;4.50;;;6.40;99.90;;;;;;5052904;28;20557;-71
2023/01/31 08:35:36;;;;;;;19.10;5.05;;;6.40;99.90;;;;;;5050988;28;20045;-72
2023/01/31 08:38:02;;;;;;;17.80;4.00;;;6.50;99.90;;;;;;5053540;28;20068;-71
2023/01/31 08:40:28;;;;;;;14.68;3.55;;;6.40;99.90;;;;;;5053736;28;20048;-71
2023/01/31 08:42:55;;;;;;;21.05;4.05;;;6.60;99.90;;;;;;5053554;28;20036;-71
2023/01/31 08:45:21;;;;;;;16.67;4.97;;;6.60;99.90;;;;;;5052440;28;20073;-72
2023/01/31 08:47:46;;;;;;;15.27;3.17;;;6.50;99.90;;;;;;5053094;28;20503;-72
2023/01/31 08:50:12;;;;;;;9.25;3.63;;;6.50;99.90;;;;;;5052014;28;20045;-72
2023/01/31 08:52:38;;;;;;;14.23;3.60;;;6.70;99.90;;;;;;5052121;28;20037;-71
2023/01/31 08:55:05;;;;;;;11.43;4.80;;;6.70;99.90;;;;;;5053407;28;20040;-70
2023/01/31 08:57:30;;;;;;;17.02;4.15;;;6.60;99.90;;;;;;5051659;28;20056;-69
2023/01/31 08:59:56;;;;;;;10.07;3.33;;;6.70;99.90;;;;;;5052040;28;20406;-69
2023/01/31 09:02:21;;;;;;;14.07;3.50;;;6.80;99.90;;;;;;5055540;28;20083;-69
2023/01/31 09:04:48;;;;;;;12.75;4.18;;;6.70;99.90;;;;;;5053072;28;20056;-70
2023/01/31 09:07:14;;;;;;;12.68;3.30;;;6.80;99.90;;;;;;5034881;28;20037;-69
2023/01/31 09:09:39;;;;;;;18.55;3.95;;;6.70;99.90;;;;;;5053103;28;20071;-69
2023/01/31 09:12:05;;;;;;;16.98;3.92;;;6.90;99.90;;;;;;5053070;28;20045;-69
2023/01/31 09:14:30;;;;;;;14.43;3.53;;;6.80;99.90;;;;;;5052995;28;20124;-69
2023/01/31 09:16:56;;;;;;;14.05;4.07;;;6.90;99.90;;;;;;5051288;28;20049;-69
2023/01/31 09:19:22;;;;;;;15.55;3.42;;;6.90;99.90;;;;;;5051983;28;20059;-69
2023/01/31 09:21:48;;;;;;;16.15;3.38;;;7.10;99.90;;;;;;5051510;28;20033;-69
2023/01/31 09:24:13;;;;;;;20.65;3.83;;;6.90;99.90;;;;;;5053003;28;20590;-71
2023/01/31 09:26:39;;;;;;;21.23;4.43;;;7.00;99.90;;;;;;5052677;28;20041;-70
2023/01/31 09:29:04;;;;;;;18.20;5.00;;;7.10;99.90;;;;;;5052356;28;20037;-70
2023/01/31 09:31:30;;;;;;;16.83;3.92;;;7.00;99.90;;;;;;5052620;28;20116;-70
2023/01/31 09:33:56;;;;;;;18.10;4.07;;;7.00;99.90;;;;;;5052635;28;20048;-70
2023/01/31 09:36:23;;;;;;;20.50;3.10;;;7.10;99.90;;;;;;5057627;28;20090;-70
2023/01/31 09:38:53;;;;;;;21.13;5.13;;;7.10;99.90;;;;;;5062398;28;20040;-70
2023/01/31 09:41:34;;;;;;;16.17;4.10;;;7.00;99.90;;;;;;5062728;28;20033;-70
2023/01/31 09:44:12;;;;;;;16.38;3.70;;;7.00;99.90;;;;;;5059846;28;20031;-70
2023/01/31 09:46:54;;;;;;;14.48;3.80;;;7.10;99.90;;;;;;5063222;28;20063;-70
2023/01/31 09:49:24;;;;;;;12.60;3.40;;;7.10;99.90;;;;;;5060936;28;20032;-70
2023/01/31 09:51:57;;;;;;;15.27;4.03;;;7.00;99.90;;;;;;5072409;28;20101;-70
2023/01/31 09:54:33;;;;;;;20.52;3.70;;;7.10;99.90;;;;;;5066055;28;20658;-71
2023/01/31 09:57:11;;;;;;;13.88;3.85;;;7.00;99.90;;;;;;5056295;28;20041;-70
2023/01/31 09:59:48;;;;;;;20.10;3.47;;;7.00;99.90;;;;;;5051013;28;20040;-71
2023/01/31 10:02:40;;;;;;;11.20;3.22;;;7.10;99.90;;;;;;5060097;28;20052;-70
2023/01/31 10:05:12;;;;;;;18.23;3.53;;;7.10;99.90;;;;;;5070397;28;20094;-71
2023/01/31 10:07:42;;;;;;;18.95;3.90;;;7.10;99.90;;;;;;5072080;28;20036;-71
2023/01/31 10:10:14;;;;;;;26.95;5.60;;;7.20;99.90;;;;;;5072209;28;20048;-71
2023/01/31 10:12:47;;;;;;;20.92;5.13;;;7.20;99.90;;;;;;5057173;28;20052;-71
2023/01/31 10:15:27;;;;;;;15.18;3.97;;;7.20;99.90;;;;;;5060369;28;20494;-71
2023/01/31 10:17:58;;;;;;;23.83;6.53;;;7.10;99.90;;;;;;5055070;28;20041;-71
2023/01/31 10:20:43;;;;;;;21.67;5.22;;;7.10;99.90;;;;;;5087973;22;20035;-67
2023/01/31 10:23:39;;;;;;;16.27;4.03;;;7.10;99.90;;;;;;5091822;28;20071;-67
2023/01/31 10:26:17;;;;;;;17.42;5.00;;;7.30;99.90;;;;;;5090194;28;20043;-67
2023/01/31 10:29:00;;;;;;;18.92;4.05;;;7.20;99.90;;;;;;5091891;28;20060;-67
2023/01/31 10:31:39;;;;;;;20.38;3.92;;;7.30;99.90;;;;;;5089231;28;20074;-67
2023/01/31 10:34:16;;;;;;;18.45;4.10;;;7.30;99.90;;;;;;5091724;28;20047;-67
2023/01/31 10:36:50;;;;;;;13.85;3.22;;;7.20;99.90;;;;;;5090447;28;20050;-67
2023/01/31 10:39:42;;;;;;;25.02;5.93;;;7.30;99.90;;;;;;5091677;28;20044;-67
2023/01/31 10:42:21;;;;;;;19.35;4.45;;;7.30;99.90;;;;;;5091557;28;20068;-67
2023/01/31 10:44:57;;;;;;;14.18;3.55;;;7.30;99.90;;;;;;5091908;28;20037;-67
2023/01/31 10:47:30;;;;;;;12.95;3.70;;;7.30;99.90;;;;;;5091531;28;20047;-67
2023/01/31 10:49:55;;;;;;;21.17;4.15;;;7.30;99.90;;;;;;5091545;28;20237;-67
2023/01/31 10:52:43;;;;;;;20.77;4.43;;;7.30;99.90;;;;;;5090483;28;20048;-67
2023/01/31 10:55:34;;;;;;;17.70;3.90;;;7.30;99.90;;;;;;5091357;28;20093;-67
2023/01/31 10:58:00;;;;;;;17.92;3.78;;;7.30;99.90;;;;;;5091458;28;20119;-67
2023/01/31 11:00:31;;;;;;;15.88;3.47;;;7.30;99.90;;;;;;5091571;28;20086;-67
2023/01/31 11:02:57;;;;;;;10.77;4.20;;;7.30;99.90;;;;;;5091347;28;20036;-67
2023/01/31 11:05:26;;;;;;;23.75;4.25;;;7.30;99.90;;;;;;5091505;28;20075;-67
2023/01/31 11:07:52;;;;;;;15.35;3.60;;;7.20;99.90;;;;;;5091284;28;20039;-67
2023/01/31 11:10:27;;;;;;;19.92;3.80;;;7.30;99.90;;;;;;5091244;28;20036;-67
2023/01/31 11:13:03;;;;;;;21.73;4.32;;;7.30;99.90;;;;;;5091242;28;20043;-67
2023/01/31 11:15:36;;;;;;;20.48;5.25;;;7.30;99.90;;;;;;5091371;28;20642;-67
2023/01/31 11:18:02;;;;;;;20.45;5.22;;;7.30;99.90;;;;;;5090584;28;20047;-67
2023/01/31 11:20:44;;;;;;;13.95;3.70;;;7.30;99.90;;;;;;5088906;28;20489;-67
2023/01/31 11:23:15;;;;;;;25.85;5.95;;;7.20;99.90;;;;;;5084927;28;20413;-67
2023/01/31 11:25:47;;;;;;;18.52;4.38;;;7.30;99.90;;;;;;5082787;28;20440;-67
2023/01/31 11:28:28;;;;;;;20.05;5.18;;;7.20;99.90;;;;;;5090909;28;20490;-67
2023/01/31 11:30:54;;;;;;;11.98;3.78;;;7.30;99.90;;;;;;5082955;28;20081;-66
2023/01/31 11:33:38;;;;;;;20.10;4.22;;;7.30;99.90;;;;;;5091314;28;20036;-67
2023/01/31 11:36:09;;;;;;;19.20;4.65;;;7.30;99.90;;;;;;5090015;28;20032;-67
2023/01/31 11:38:34;;;;;;;10.93;3.97;;;7.30;99.90;;;;;;5089904;28;20138;-67
2023/01/31 11:41:00;;;;;;;17.20;4.57;;;7.40;99.90;;;;;;5083035;28;20517;-67
2023/01/31 11:43:29;;;;;;;18.80;4.18;;;7.30;99.90;;;;;;5093039;28;20044;-67
2023/01/31 11:46:00;;;;;;;19.20;4.53;;;7.30;99.90;;;;;;5094732;28;20441;-67
2023/01/31 11:48:38;;;;;;;15.70;3.50;;;7.30;99.90;;;;;;5093110;28;20052;-67
2023/01/31 11:51:05;;;;;;;15.27;4.07;;;7.20;99.90;;;;;;5094481;28;20501;-66
2023/01/31 11:53:43;;;;;;;19.63;5.05;;;7.40;99.90;;;;;;5094923;28;20044;-66
2023/01/31 11:56:15;;;;;;;19.83;4.07;;;7.40;99.90;;;;;;5094642;28;20032;-66
2023/01/31 11:58:42;;;;;;;11.40;3.40;;;7.40;99.90;;;;;;5094280;28;20072;-66
2023/01/31 12:01:21;;;;;;;18.85;4.30;;;7.50;99.90;;;;;;5094462;28;20036;-66
2023/01/31 12:03:50;;;;;;;25.35;5.95;;;7.50;99.90;;;;;;5094528;28;20040;-67
2023/01/31 12:06:40;;;;;;;22.52;4.40;;;7.60;99.90;;;;;;5094708;28;20036;-66
2023/01/31 12:09:21;;;;;;;31.25;6.30;;;7.50;99.90;;;;;;5094152;28;20484;-66
2023/01/31 12:11:58;;;;;;;23.45;5.43;;;7.60;99.90;;;;;;5094106;28;20044;-67
2023/01/31 12:14:36;;;;;;;19.15;4.95;;;7.60;99.90;;;;;;5094549;28;20040;-66
2023/01/31 12:17:02;;;;;;;20.17;5.18;;;7.60;99.90;;;;;;5093947;28;20520;-66
2023/01/31 12:19:51;;;;;;;16.08;6.40;;;7.60;99.90;;;;;;5094137;28;20048;-66
2023/01/31 12:22:26;;;;;;;18.95;4.57;;;7.70;99.90;;;;;;5094049;28;20032;-66
2023/01/31 12:25:14;;;;;;;15.98;5.28;;;7.70;99.90;;;;;;5094376;28;20062;-67
2023/01/31 12:28:00;;;;;;;23.15;4.40;;;7.70;99.90;;;;;;5093769;28;20097;-67
2023/01/31 12:30:44;;;;;;;22.20;5.15;;;7.80;99.90;;;;;;5093966;28;20052;-66
2023/01/31 12:33:25;;;;;;;23.80;5.40;;;7.90;99.90;;;;;;5093734;28;20032;-67
2023/01/31 12:36:18;;;;;;;23.45;4.70;;;8.00;99.90;;;;;;5093675;28;20036;-67
2023/01/31 12:39:01;;;;;;;24.73;4.53;;;7.80;99.90;;;;;;5087276;28;20085;-67
2023/01/31 12:41:39;;;;;;;16.42;4.57;;;8.00;99.90;;;;;;5085614;28;20294;-67
2023/01/31 12:44:40;;;;;;;22.55;5.05;;;7.90;99.90;;;;;;5093878;28;20047;-67
2023/01/31 12:47:43;;;;;;;21.30;4.28;;;8.00;99.90;;;;;;5092422;28;20101;-67
2023/01/31 12:50:23;;;;;;;18.67;4.03;;;8.00;99.90;;;;;;5082242;28;20040;-66
2023/01/31 12:53:30;;;;;;;16.08;4.07;;;8.10;99.90;;;;;;5082424;28;20039;-66
2023/01/31 12:56:11;;;;;;;19.13;3.53;;;8.20;99.90;;;;;;5062095;28;20147;-66
2023/01/31 12:59:27;;;;;;;16.67;3.92;;;8.40;99.90;;;;;;5072914;28;20044;-67
2023/01/31 13:02:22;;;;;;;15.35;3.60;;;8.30;99.90;;;;;;5057205;28;20048;-67
2023/01/31 13:04:55;;;;;;;24.02;4.60;;;8.40;99.90;;;;;;5093399;28;20086;-67
2023/01/31 13:07:33;;;;;;;17.73;4.07;;;8.40;99.90;;;;;;5093183;28;20032;-67
2023/01/31 13:10:01;;;;;;;20.50;3.83;;;8.30;99.90;;;;;;5093288;28;20032;-67
2023/01/31 13:12:31;;;;;;;16.13;4.28;;;8.40;99.90;;;;;;5093376;28;20081;-67
2023/01/31 13:15:06;;;;;;;18.92;4.05;;;8.40;99.90;;;;;;5093354;28;20477;-67
2023/01/31 13:17:36;;;;;;;20.13;4.70;;;8.40;99.90;;;;;;5083110;28;20042;-67
2023/01/31 13:20:17;;;;;;;12.85;4.30;;;8.50;99.90;;;;;;5082701;28;20093;-67